Etusivu
METAR-TAF:

METAR-TAF

Lentoasemat :

Kristianstad, Ruotsi

Leveyspiiri: 55-55N, Pituuspiiri: 014-05E, korkeus merenpinnasta: 23 m

Tämänhetkinen sää

Tämä raportti tehtiin 44 minuuttia sitten, kello 14.50 UTC
Tuuli 13 kn lännestä
Lämpötila 11°C
Kosteus 82%
Ilmanpaine 1025 hPa
Näkyvyys: 9000 m
Hajonneita pilviä 1200 ft:n korkeudessa
utua

METAR: ESMK 211450Z 26013KT 9000 BR BKN012 11/08 Q1025

Aika: 16:34 (15:34 UTC)

Sääennuste

Tämä raportti tehtiin 1 tunti ja 22 minuuttia sitten, kello 14.12 UTC
Ennuste voimassa 21. päivästä klo 15 UTC - 21. päivään klo 21 UTC
Tuuli 16 kn lännestä
Näkyvyys: 8000 m
Hajanaisia pilviä 800 ft:n korkeudessa
Hajonneita pilviä 1500 ft:n korkeudessa
Ajoittain
21. päivästä klo 15 UTC - 21. päivään klo 21 UTC
Hajonneita pilviä 800 ft:n korkeudessa

TAF: ESMK 211412Z 2115/2121 26016KT 8000 SCT008 BKN015 TEMPO 2115/2121 BKN008

Säähavainnot ja -ennusteet yli 4000 lentoasemalta (METAR- ja TAF-raportit).

Käytössä olevat sääasemat on merkitty karttaan keltaisilla ja punaisilla pisteillä.

Aseta hiiri pisteen päälle nähdäksesi sääaseman nimen.

Klikkaa sitten nähdäksesi säähavainnot ja -ennusteet.

Kartan vaihtaminen: klikkaa mustalla rastilla varustettuja vihreitä pisteitä, niin voit zoomata sisään; viivalla varustettua vihreää pistettä, niin voit zoomata ulos tai vihreitä nuolia, niin pääset viereisille kartoille.


METAR-TAF: